createdAt,value
2023-05-24T00:00:41.875Z,97.08
2023-05-24T00:03:08.640Z,96.57
2023-05-24T00:05:37.003Z,97.94
2023-05-24T00:08:03.375Z,97.95
2023-05-24T00:10:33.902Z,99.55
2023-05-24T00:12:59.810Z,99.60
2023-05-24T00:15:25.574Z,100.00
2023-05-24T00:17:51.410Z,100.00
2023-05-24T00:20:19.864Z,100.00
2023-05-24T00:22:46.731Z,100.00
2023-05-24T00:25:12.663Z,100.00
2023-05-24T00:27:38.580Z,100.00
2023-05-24T00:30:05.725Z,100.00
2023-05-24T00:32:31.669Z,100.00
2023-05-24T00:34:57.532Z,100.00
2023-05-24T00:37:23.441Z,100.00
2023-05-24T00:39:49.277Z,100.00
2023-05-24T00:42:15.331Z,100.00
2023-05-24T00:44:41.109Z,100.00
2023-05-24T00:47:07.193Z,100.00
2023-05-24T00:49:34.473Z,100.00
2023-05-24T00:52:01.034Z,100.00
2023-05-24T00:54:28.417Z,100.00
2023-05-24T00:56:55.952Z,100.00
2023-05-24T00:59:23.263Z,100.00
2023-05-24T01:01:49.215Z,100.00
2023-05-24T01:04:17.032Z,100.00
2023-05-24T01:06:58.536Z,100.00
2023-05-24T01:09:52.366Z,100.00
2023-05-24T01:12:53.082Z,100.00
2023-05-24T01:15:56.160Z,100.00
2023-05-24T01:18:34.568Z,100.00
2023-05-24T01:21:16.395Z,100.00
2023-05-24T01:24:05.131Z,100.00
2023-05-24T01:26:45.102Z,100.00
2023-05-24T01:29:13.130Z,100.00
2023-05-24T01:31:39.253Z,100.00
2023-05-24T01:34:05.698Z,100.00
2023-05-24T01:36:31.565Z,100.00
2023-05-24T01:38:57.982Z,100.00
2023-05-24T01:41:38.745Z,100.00
2023-05-24T01:44:16.056Z,100.00
2023-05-24T01:46:42.760Z,100.00
2023-05-24T01:49:24.392Z,100.00
2023-05-24T01:51:58.184Z,100.00
2023-05-24T01:54:27.593Z,100.00
2023-05-24T01:56:54.955Z,100.00
2023-05-24T01:59:23.404Z,100.00
2023-05-24T02:01:50.265Z,100.00
2023-05-24T02:04:18.277Z,100.00
2023-05-24T02:06:44.298Z,100.00
2023-05-24T02:09:10.348Z,100.00
2023-05-24T02:11:36.240Z,100.00
2023-05-24T02:14:02.123Z,100.00
2023-05-24T02:16:30.119Z,100.00
2023-05-24T02:18:57.121Z,100.00
2023-05-24T02:21:23.615Z,100.00
2023-05-24T02:23:49.587Z,100.00
2023-05-24T02:26:17.015Z,100.00
2023-05-24T02:28:43.305Z,100.00
2023-05-24T02:31:09.314Z,100.00
2023-05-24T02:33:36.014Z,100.00
2023-05-24T02:36:04.761Z,100.00
2023-05-24T02:38:31.257Z,100.00
2023-05-24T02:40:57.049Z,100.00
2023-05-24T02:43:22.863Z,100.00
2023-05-24T02:45:51.694Z,100.00
2023-05-24T02:48:17.500Z,100.00
2023-05-24T02:50:43.794Z,100.00
2023-05-24T02:53:09.788Z,100.00
2023-05-24T02:55:36.615Z,100.00
2023-05-24T02:58:02.678Z,100.00
2023-05-24T03:00:28.510Z,100.00
2023-05-24T03:02:54.878Z,100.00
2023-05-24T03:05:20.844Z,100.00
2023-05-24T03:07:46.686Z,100.00
2023-05-24T03:10:15.154Z,100.00
2023-05-24T03:12:41.865Z,100.00
2023-05-24T03:15:08.493Z,100.00
2023-05-24T03:17:34.338Z,100.00
2023-05-24T03:20:00.662Z,100.00
2023-05-24T03:22:26.608Z,100.00
2023-05-24T03:24:52.416Z,100.00
2023-05-24T03:27:18.321Z,100.00
2023-05-24T03:29:44.152Z,100.00
2023-05-24T03:32:10.148Z,100.00
2023-05-24T03:34:35.969Z,100.00
2023-05-24T03:37:01.802Z,100.00
2023-05-24T03:39:27.595Z,100.00
2023-05-24T03:41:53.412Z,100.00
2023-05-24T03:44:19.421Z,100.00
2023-05-24T03:46:45.206Z,100.00
2023-05-24T03:49:11.016Z,100.00
2023-05-24T03:51:36.795Z,100.00
2023-05-24T03:54:02.725Z,100.00
2023-05-24T03:56:28.540Z,100.00
2023-05-24T03:58:54.495Z,100.00
2023-05-24T04:01:32.723Z,100.00
2023-05-24T04:04:00.714Z,100.00
2023-05-24T04:06:28.567Z,100.00
2023-05-24T04:08:55.955Z,100.00
2023-05-24T04:11:23.886Z,100.00
2023-05-24T04:13:50.617Z,100.00
2023-05-24T04:16:16.698Z,100.00
2023-05-24T04:18:45.699Z,100.00
2023-05-24T04:21:11.666Z,100.00
2023-05-24T04:23:37.504Z,100.00
2023-05-24T04:26:03.391Z,100.00
2023-05-24T04:28:29.233Z,100.00
2023-05-24T04:30:56.988Z,100.00
2023-05-24T04:33:22.839Z,100.00
2023-05-24T04:35:48.672Z,100.00
2023-05-24T04:38:14.913Z,100.00
2023-05-24T04:40:40.917Z,100.00
2023-05-24T04:43:09.796Z,100.00
2023-05-24T04:45:35.752Z,100.00
2023-05-24T04:48:01.630Z,100.00
2023-05-24T04:50:27.982Z,100.00
2023-05-24T04:52:53.814Z,100.00
2023-05-24T04:55:19.764Z,100.00
2023-05-24T04:57:45.718Z,100.00
2023-05-24T05:00:12.380Z,100.00
2023-05-24T05:02:38.333Z,100.00
2023-05-24T05:05:04.631Z,100.00
2023-05-24T05:07:30.421Z,100.00
2023-05-24T05:09:56.326Z,100.00
2023-05-24T05:12:22.117Z,100.00
2023-05-24T05:14:48.145Z,100.00
2023-05-24T05:17:13.984Z,100.00
2023-05-24T05:19:39.827Z,100.00
2023-05-24T05:22:05.666Z,100.00
2023-05-24T05:24:31.617Z,100.00
2023-05-24T05:26:57.538Z,100.00
2023-05-24T05:29:24.457Z,100.00
2023-05-24T05:31:50.620Z,100.00
2023-05-24T05:34:16.433Z,100.00
2023-05-24T05:36:42.664Z,100.00
2023-05-24T05:39:11.363Z,100.00
2023-05-24T05:41:46.009Z,100.00
2023-05-24T05:44:12.812Z,100.00
2023-05-24T05:46:39.137Z,100.00
2023-05-24T05:49:06.039Z,100.00
2023-05-24T05:51:31.942Z,100.00
2023-05-24T05:53:57.733Z,100.00
2023-05-24T05:56:23.547Z,100.00
2023-05-24T05:58:49.405Z,100.00
2023-05-24T06:01:15.888Z,100.00
2023-05-24T06:03:42.045Z,100.00
2023-05-24T06:06:07.974Z,100.00
2023-05-24T06:08:34.378Z,100.00
2023-05-24T06:11:01.180Z,100.00
2023-05-24T06:13:28.099Z,100.00
2023-05-24T06:15:54.584Z,100.00
2023-05-24T06:18:20.433Z,100.00
2023-05-24T06:20:46.778Z,100.00
2023-05-24T06:23:12.687Z,100.00
2023-05-24T06:25:39.730Z,100.00
2023-05-24T06:28:05.772Z,100.00
2023-05-24T06:30:33.009Z,100.00
2023-05-24T06:33:00.257Z,100.00
2023-05-24T06:35:26.247Z,100.00
2023-05-24T06:37:52.084Z,100.00
2023-05-24T06:40:17.921Z,100.00
2023-05-24T06:42:43.717Z,100.00
2023-05-24T06:45:10.192Z,100.00
2023-05-24T06:47:36.632Z,100.00
2023-05-24T06:50:06.072Z,100.00
2023-05-24T06:52:31.943Z,100.00
2023-05-24T06:54:57.794Z,100.00
2023-05-24T06:57:24.485Z,100.00
2023-05-24T06:59:50.450Z,99.05
2023-05-24T07:02:16.565Z,99.85
2023-05-24T07:04:42.582Z,100.00
2023-05-24T07:07:09.382Z,100.00
2023-05-24T07:09:35.564Z,100.00
2023-05-24T07:12:01.865Z,100.00
2023-05-24T07:14:27.865Z,100.00
2023-05-24T07:16:56.632Z,98.95
2023-05-24T07:19:22.502Z,97.93
2023-05-24T07:21:48.303Z,98.25
2023-05-24T07:24:16.050Z,98.77
2023-05-24T07:26:42.524Z,98.80
2023-05-24T07:29:08.716Z,98.83
2023-05-24T07:31:34.780Z,99.01
2023-05-24T07:34:00.620Z,100.00
2023-05-24T07:36:28.958Z,100.00
2023-05-24T07:38:54.725Z,100.00
2023-05-24T07:41:25.588Z,98.83
2023-05-24T07:43:51.597Z,99.43
2023-05-24T07:46:17.581Z,96.40
2023-05-24T07:48:43.504Z,94.20
2023-05-24T07:51:09.749Z,92.99
2023-05-24T07:53:36.906Z,92.65
2023-05-24T07:56:02.934Z,92.14
2023-05-24T07:58:28.882Z,91.31
2023-05-24T08:00:54.700Z,89.66
2023-05-24T08:03:20.850Z,89.00
2023-05-24T08:05:46.944Z,89.54
2023-05-24T08:08:13.248Z,88.59
2023-05-24T08:10:39.136Z,86.48
2023-05-24T08:13:05.353Z,86.75
2023-05-24T08:15:31.189Z,88.60
2023-05-24T08:17:57.042Z,86.98
2023-05-24T08:20:23.137Z,86.17
2023-05-24T08:22:49.006Z,82.75
2023-05-24T08:25:15.268Z,81.92
2023-05-24T08:27:41.136Z,83.91
2023-05-24T08:30:07.721Z,85.20
2023-05-24T08:32:33.774Z,84.63
2023-05-24T08:35:14.751Z,84.94
2023-05-24T08:37:46.589Z,83.87
2023-05-24T08:40:12.830Z,84.06
2023-05-24T08:42:40.056Z,85.04
2023-05-24T08:45:12.135Z,85.23
2023-05-24T08:47:39.003Z,85.65
2023-05-24T08:50:06.322Z,84.88
2023-05-24T08:52:32.263Z,87.89
2023-05-24T08:54:59.242Z,86.92
2023-05-24T08:57:29.967Z,87.51
2023-05-24T08:59:56.244Z,87.77
2023-05-24T09:02:23.135Z,88.66
2023-05-24T09:04:52.410Z,89.92
2023-05-24T09:07:22.745Z,90.27
2023-05-24T09:10:00.417Z,88.98
2023-05-24T09:12:37.168Z,89.95
2023-05-24T09:15:06.206Z,88.97
2023-05-24T09:17:33.887Z,88.04
2023-05-24T09:20:00.202Z,87.37
2023-05-24T09:22:27.800Z,86.42
2023-05-24T09:24:58.036Z,86.24
2023-05-24T09:27:23.831Z,84.69
2023-05-24T09:29:51.267Z,86.56
2023-05-24T09:32:19.241Z,88.32
2023-05-24T09:34:48.172Z,88.14
2023-05-24T09:37:16.129Z,88.51
2023-05-24T09:39:47.428Z,88.13
2023-05-24T09:42:27.796Z,86.95
2023-05-24T09:45:11.361Z,87.48
2023-05-24T09:47:39.615Z,91.79
2023-05-24T09:50:12.445Z,90.81
2023-05-24T09:52:38.819Z,90.01
2023-05-24T09:55:15.681Z,91.37
2023-05-24T09:57:43.615Z,93.21
2023-05-24T10:00:16.902Z,91.58
2023-05-24T10:02:53.105Z,89.08
2023-05-24T10:05:20.501Z,88.27
2023-05-24T10:07:47.282Z,85.66
2023-05-24T10:10:13.256Z,83.57
2023-05-24T10:12:43.209Z,82.33
2023-05-24T10:15:10.330Z,84.63
2023-05-24T10:17:36.253Z,84.90
2023-05-24T10:20:04.201Z,84.46
2023-05-24T10:22:30.874Z,84.45
2023-05-24T10:24:59.290Z,83.53
2023-05-24T10:27:30.855Z,82.85
2023-05-24T10:30:44.653Z,84.96
2023-05-24T10:33:13.667Z,84.02
2023-05-24T10:35:41.918Z,83.74
2023-05-24T10:38:08.573Z,81.63
2023-05-24T10:40:40.147Z,80.63
2023-05-24T10:43:07.373Z,78.59
2023-05-24T10:45:37.203Z,75.35
2023-05-24T10:48:12.610Z,70.06
2023-05-24T10:50:39.127Z,69.65
2023-05-24T10:53:18.303Z,70.15
2023-05-24T10:55:58.304Z,70.50
2023-05-24T10:58:44.072Z,70.71
2023-05-24T11:01:24.044Z,70.03
2023-05-24T11:03:52.169Z,67.62
2023-05-24T11:06:18.919Z,67.94
2023-05-24T11:08:45.775Z,69.80
2023-05-24T11:13:42.431Z,71.90
2023-05-24T11:16:08.452Z,73.37
2023-05-24T11:18:37.887Z,75.54
2023-05-24T11:21:05.979Z,73.98
2023-05-24T11:23:32.306Z,73.89
2023-05-24T11:25:58.290Z,75.82
2023-05-24T11:28:24.691Z,77.31
2023-05-24T11:30:50.962Z,79.83
2023-05-24T11:33:22.709Z,81.65
2023-05-24T11:35:51.402Z,82.31
2023-05-24T11:38:18.421Z,83.09
2023-05-24T11:40:46.177Z,84.13
2023-05-24T11:43:16.397Z,86.05
2023-05-24T11:45:44.415Z,86.81
2023-05-24T11:48:10.575Z,84.82
2023-05-24T11:50:49.764Z,85.85
2023-05-24T11:53:19.571Z,86.72
2023-05-24T11:55:46.137Z,86.95
2023-05-24T11:58:45.007Z,88.01
2023-05-24T12:01:26.730Z,87.34
2023-05-24T12:03:54.180Z,88.81
2023-05-24T12:06:21.665Z,88.54
2023-05-24T12:08:48.221Z,88.88
2023-05-24T12:11:15.715Z,87.52
2023-05-24T12:13:41.998Z,86.37
2023-05-24T12:16:10.119Z,85.54
2023-05-24T12:18:36.079Z,85.06
2023-05-24T12:21:07.771Z,85.67
2023-05-24T12:23:34.672Z,85.42
2023-05-24T12:26:03.744Z,85.60
2023-05-24T12:28:37.936Z,81.87
2023-05-24T12:31:05.346Z,83.35
2023-05-24T12:33:32.101Z,84.41
2023-05-24T12:35:58.380Z,84.13
2023-05-24T12:38:24.889Z,85.25
2023-05-24T12:41:03.829Z,85.49
2023-05-24T12:43:38.131Z,84.24
2023-05-24T12:46:04.170Z,85.60
2023-05-24T12:48:30.344Z,85.40
2023-05-24T12:50:56.193Z,86.29
2023-05-24T12:53:23.921Z,87.96
2023-05-24T12:55:56.449Z,89.82
2023-05-24T12:58:22.421Z,89.31
2023-05-24T13:00:49.607Z,91.16
2023-05-24T13:03:15.475Z,91.16
2023-05-24T13:05:42.158Z,90.31
2023-05-24T13:08:08.607Z,91.24
2023-05-24T13:10:34.699Z,91.92
2023-05-24T13:13:08.714Z,93.16
2023-05-24T13:15:35.227Z,94.31
2023-05-24T13:18:01.253Z,91.64
2023-05-24T13:20:27.345Z,87.60
2023-05-24T13:22:53.273Z,85.79
2023-05-24T13:25:21.777Z,83.02
2023-05-24T13:27:47.711Z,81.28
2023-05-24T13:30:13.876Z,82.74
2023-05-24T13:32:41.143Z,82.82
2023-05-24T13:35:08.657Z,85.33
2023-05-24T13:37:34.690Z,87.88
2023-05-24T13:40:00.506Z,89.68
2023-05-24T13:42:26.387Z,91.45
2023-05-24T13:44:54.158Z,92.82
2023-05-24T13:47:31.131Z,92.51
2023-05-24T13:50:05.500Z,94.45
2023-05-24T13:52:32.158Z,92.53
2023-05-24T13:54:58.026Z,91.76
2023-05-24T13:57:27.788Z,90.46
2023-05-24T13:59:58.428Z,90.93
2023-05-24T14:02:24.757Z,91.34
2023-05-24T14:04:51.794Z,90.44
2023-05-24T14:07:18.502Z,90.64
2023-05-24T14:09:44.910Z,92.49
2023-05-24T14:12:11.568Z,91.70
2023-05-24T14:14:59.406Z,92.46
2023-05-24T14:17:23.243Z,91.80
2023-05-24T14:19:49.070Z,92.35
2023-05-24T14:22:14.947Z,92.56
2023-05-24T14:24:40.751Z,91.49
2023-05-24T14:27:06.523Z,92.76
2023-05-24T14:29:32.736Z,91.96
2023-05-24T14:31:58.717Z,92.02
2023-05-24T14:34:24.583Z,92.02
2023-05-24T14:36:50.440Z,92.62
2023-05-24T14:39:16.526Z,91.88
2023-05-24T14:41:42.333Z,92.60
2023-05-24T14:44:08.199Z,92.88
2023-05-24T14:46:34.056Z,93.71
2023-05-24T14:49:01.691Z,92.95
2023-05-24T14:51:27.597Z,92.75
2023-05-24T14:53:53.408Z,94.31
2023-05-24T14:56:19.222Z,92.14
2023-05-24T14:58:45.148Z,93.65
2023-05-24T15:01:10.997Z,93.38
2023-05-24T15:03:37.029Z,93.07
2023-05-24T15:06:04.058Z,90.97
2023-05-24T15:08:30.194Z,89.00
2023-05-24T15:10:58.661Z,83.56
2023-05-24T15:13:25.390Z,84.34
2023-05-24T15:15:52.531Z,86.98
2023-05-24T15:18:18.906Z,87.65
2023-05-24T15:20:45.015Z,89.94
2023-05-24T15:23:11.211Z,90.55
2023-05-24T15:25:37.482Z,91.68
2023-05-24T15:28:03.308Z,94.08
2023-05-24T15:30:29.544Z,93.83
2023-05-24T15:32:55.338Z,95.84
2023-05-24T15:35:21.545Z,95.52
2023-05-24T15:37:47.357Z,96.95
2023-05-24T15:40:14.356Z,98.24
2023-05-24T15:42:40.271Z,99.25
2023-05-24T15:45:06.835Z,98.83
2023-05-24T15:47:37.333Z,98.13
2023-05-24T15:50:03.537Z,98.21
2023-05-24T15:52:29.604Z,97.91
2023-05-24T15:54:55.470Z,96.88
2023-05-24T15:57:21.332Z,95.35
2023-05-24T15:59:47.146Z,94.10
2023-05-24T16:02:13.001Z,94.18
2023-05-24T16:04:39.048Z,92.72
2023-05-24T16:07:08.071Z,92.82
2023-05-24T16:09:33.845Z,93.24
2023-05-24T16:12:00.958Z,93.06
2023-05-24T16:14:27.017Z,92.02
2023-05-24T16:16:53.346Z,92.72
2023-05-24T16:19:19.384Z,94.04
2023-05-24T16:21:45.186Z,93.05
2023-05-24T16:24:11.097Z,93.50
2023-05-24T16:26:37.062Z,93.95
2023-05-24T16:29:02.982Z,94.03
2023-05-24T16:31:29.736Z,93.70
2023-05-24T16:33:56.550Z,93.58
2023-05-24T16:36:22.511Z,94.05
2023-05-24T16:38:48.330Z,93.97
2023-05-24T16:41:14.164Z,92.99
2023-05-24T16:43:40.124Z,93.09
2023-05-24T16:46:06.075Z,93.08
2023-05-24T16:48:32.297Z,92.67
2023-05-24T16:50:59.225Z,92.79
2023-05-24T16:53:26.077Z,92.92
2023-05-24T16:55:55.558Z,93.45
2023-05-24T16:58:22.494Z,94.82
2023-05-24T17:00:48.691Z,94.27
2023-05-24T17:03:14.921Z,94.33
2023-05-24T17:05:41.101Z,93.91
2023-05-24T17:08:07.720Z,93.81
2023-05-24T17:10:34.164Z,94.53
2023-05-24T17:13:00.260Z,94.20
2023-05-24T17:15:26.081Z,93.46
2023-05-24T17:17:55.008Z,93.77
2023-05-24T17:20:21.212Z,94.60
2023-05-24T17:22:48.707Z,93.76
2023-05-24T17:25:14.553Z,92.92
2023-05-24T17:27:40.457Z,91.31
2023-05-24T17:30:06.919Z,90.82
2023-05-24T17:32:32.796Z,91.64
2023-05-24T17:34:58.653Z,91.46
2023-05-24T17:37:24.542Z,92.88
2023-05-24T17:39:51.653Z,95.34
2023-05-24T17:42:18.692Z,94.68
2023-05-24T17:44:44.537Z,95.74
2023-05-24T17:47:10.380Z,97.13
2023-05-24T17:49:36.356Z,97.08
2023-05-24T17:52:02.652Z,96.65
2023-05-24T17:54:28.517Z,97.28
2023-05-24T17:56:54.498Z,97.82
2023-05-24T17:59:20.572Z,98.92
2023-05-24T18:01:46.539Z,99.33
2023-05-24T18:04:12.603Z,99.82
2023-05-24T18:06:38.468Z,100.00
2023-05-24T18:09:07.279Z,100.00
2023-05-24T18:11:33.345Z,100.00
2023-05-24T18:13:59.795Z,100.00
2023-05-24T18:16:26.048Z,100.00
2023-05-24T18:18:52.032Z,100.00
2023-05-24T18:21:17.897Z,100.00
2023-05-24T18:23:43.862Z,100.00
2023-05-24T18:26:11.273Z,100.00
2023-05-24T18:28:38.182Z,100.00
2023-05-24T18:31:13.716Z,100.00
2023-05-24T18:33:39.985Z,100.00
2023-05-24T18:36:06.238Z,100.00
2023-05-24T18:38:33.405Z,100.00
2023-05-24T18:40:59.278Z,100.00
2023-05-24T18:43:25.213Z,100.00
2023-05-24T18:45:51.054Z,100.00
2023-05-24T18:48:17.180Z,100.00
2023-05-24T18:50:43.196Z,100.00
2023-05-24T18:53:09.306Z,100.00
2023-05-24T18:55:35.232Z,100.00
2023-05-24T18:58:01.123Z,100.00
2023-05-24T19:00:27.246Z,100.00
2023-05-24T19:02:54.731Z,100.00
2023-05-24T19:05:20.723Z,100.00
2023-05-24T19:07:46.680Z,100.00
2023-05-24T19:10:13.310Z,100.00
2023-05-24T19:12:39.644Z,100.00
2023-05-24T19:15:06.798Z,100.00
2023-05-24T19:17:32.838Z,100.00
2023-05-24T19:19:58.844Z,100.00
2023-05-24T19:22:25.624Z,100.00
2023-05-24T19:24:51.576Z,100.00
2023-05-24T19:27:17.589Z,100.00
2023-05-24T19:29:43.471Z,100.00
2023-05-24T19:32:10.615Z,100.00
2023-05-24T19:34:41.167Z,100.00
2023-05-24T19:37:08.434Z,100.00
2023-05-24T19:39:36.100Z,100.00
2023-05-24T19:42:02.261Z,100.00
2023-05-24T19:44:29.221Z,100.00
2023-05-24T19:46:55.269Z,100.00
2023-05-24T19:49:21.126Z,100.00
2023-05-24T19:51:47.061Z,100.00
2023-05-24T19:54:12.991Z,100.00
2023-05-24T19:56:39.280Z,100.00
2023-05-24T19:59:05.405Z,100.00
2023-05-24T20:01:31.677Z,100.00
2023-05-24T20:03:57.825Z,100.00
2023-05-24T20:06:23.907Z,100.00
2023-05-24T20:08:49.848Z,100.00
2023-05-24T20:11:16.075Z,100.00
2023-05-24T20:13:42.051Z,100.00
2023-05-24T20:16:08.477Z,100.00
2023-05-24T20:18:34.718Z,100.00
2023-05-24T20:21:01.521Z,100.00
2023-05-24T20:23:27.774Z,100.00
2023-05-24T20:25:56.498Z,100.00
2023-05-24T20:28:30.886Z,100.00
2023-05-24T20:30:57.951Z,100.00
2023-05-24T20:33:23.862Z,100.00
2023-05-24T20:35:52.173Z,100.00
2023-05-24T20:38:18.418Z,100.00
2023-05-24T20:40:44.599Z,100.00
2023-05-24T20:43:10.522Z,100.00
2023-05-24T20:45:36.396Z,100.00
2023-05-24T20:48:02.452Z,100.00
2023-05-24T20:50:28.525Z,100.00
2023-05-24T20:52:54.716Z,100.00
2023-05-24T20:55:20.714Z,100.00
2023-05-24T20:57:47.100Z,100.00
2023-05-24T21:00:13.177Z,100.00
2023-05-24T21:02:39.639Z,100.00
2023-05-24T21:05:06.056Z,100.00
2023-05-24T21:07:31.969Z,100.00
2023-05-24T21:09:57.857Z,100.00
2023-05-24T21:12:23.649Z,100.00
2023-05-24T21:14:52.970Z,100.00
2023-05-24T21:17:18.946Z,100.00
2023-05-24T21:19:44.841Z,100.00
2023-05-24T21:22:10.707Z,100.00
2023-05-24T21:24:36.472Z,100.00
2023-05-24T21:27:02.419Z,100.00
2023-05-24T21:29:28.244Z,100.00
2023-05-24T21:31:54.056Z,100.00
2023-05-24T21:34:20.004Z,100.00
2023-05-24T21:36:45.870Z,100.00
2023-05-24T21:39:11.665Z,100.00
2023-05-24T21:41:37.510Z,100.00
2023-05-24T21:44:05.531Z,100.00
2023-05-24T21:46:32.890Z,100.00
2023-05-24T21:48:59.271Z,100.00
2023-05-24T21:51:25.660Z,100.00
2023-05-24T21:53:52.421Z,100.00
2023-05-24T21:56:18.473Z,100.00
2023-05-24T21:58:44.382Z,100.00
2023-05-24T22:01:10.399Z,100.00
2023-05-24T22:03:36.937Z,100.00
2023-05-24T22:06:03.213Z,100.00
2023-05-24T22:08:29.806Z,100.00
2023-05-24T22:10:56.494Z,100.00
2023-05-24T22:13:22.477Z,100.00
2023-05-24T22:15:48.334Z,100.00
2023-05-24T22:18:16.900Z,100.00
2023-05-24T22:20:44.226Z,100.00
2023-05-24T22:23:11.277Z,100.00
2023-05-24T22:25:38.315Z,100.00
2023-05-24T22:28:05.423Z,100.00
2023-05-24T22:30:34.361Z,100.00
2023-05-24T22:33:00.773Z,100.00
2023-05-24T22:35:27.351Z,100.00
2023-05-24T22:37:53.181Z,100.00
2023-05-24T22:40:18.983Z,100.00
2023-05-24T22:42:44.949Z,100.00
2023-05-24T22:45:11.117Z,100.00
2023-05-24T22:47:39.081Z,100.00
2023-05-24T22:50:06.607Z,100.00
2023-05-24T22:52:35.506Z,100.00
2023-05-24T22:55:01.924Z,100.00
2023-05-24T22:57:32.793Z,100.00
2023-05-24T22:59:58.597Z,100.00
2023-05-24T23:02:24.425Z,100.00
2023-05-24T23:04:50.275Z,100.00
2023-05-24T23:07:16.310Z,100.00
2023-05-24T23:09:43.199Z,100.00
2023-05-24T23:12:09.735Z,100.00
2023-05-24T23:14:37.552Z,100.00
2023-05-24T23:17:12.631Z,100.00
2023-05-24T23:19:42.262Z,100.00
2023-05-24T23:22:12.164Z,100.00
2023-05-24T23:24:41.144Z,100.00
2023-05-24T23:27:07.695Z,100.00
2023-05-24T23:29:34.118Z,100.00
2023-05-24T23:32:00.513Z,100.00
2023-05-24T23:34:26.826Z,100.00
2023-05-24T23:36:52.800Z,100.00
2023-05-24T23:39:18.670Z,100.00
2023-05-24T23:41:44.840Z,100.00
2023-05-24T23:44:10.749Z,100.00
2023-05-24T23:46:38.698Z,100.00
2023-05-24T23:49:04.862Z,100.00
2023-05-24T23:51:32.802Z,100.00
2023-05-24T23:53:59.326Z,100.00
2023-05-24T23:56:25.866Z,100.00
2023-05-24T23:58:52.688Z,100.00
